sensor_id;sensor_type;location;lat;lon;timestamp;pressure;altitude;pressure_sealevel;temperature;humidity
50550;BME280;36505;52.512;13.460;2023-03-04T00:02:14;101313.78;;;2.23;81.13
50550;BME280;36505;52.512;13.460;2023-03-04T00:04:39;101309.75;;;2.19;81.55
50550;BME280;36505;52.512;13.460;2023-03-04T00:07:05;101307.72;;;2.21;81.50
50550;BME280;36505;52.512;13.460;2023-03-04T00:09:30;101291.81;;;2.26;81.50
50550;BME280;36505;52.512;13.460;2023-03-04T00:11:55;101288.59;;;2.30;81.23
50550;BME280;36505;52.512;13.460;2023-03-04T00:14:21;101293.50;;;2.27;81.32
50550;BME280;36505;52.512;13.460;2023-03-04T00:16:46;101297.06;;;2.19;81.74
50550;BME280;36505;52.512;13.460;2023-03-04T00:19:13;101288.13;;;2.19;81.65
50550;BME280;36505;52.512;13.460;2023-03-04T00:21:39;101287.63;;;2.23;82.00
50550;BME280;36505;52.512;13.460;2023-03-04T00:24:05;101289.78;;;2.28;81.77
50550;BME280;36505;52.512;13.460;2023-03-04T00:26:31;101294.47;;;2.34;81.52
50550;BME280;36505;52.512;13.460;2023-03-04T00:28:56;101293.97;;;2.38;81.63
50550;BME280;36505;52.512;13.460;2023-03-04T00:31:21;101285.47;;;2.42;81.50
50550;BME280;36505;52.512;13.460;2023-03-04T00:33:47;101290.53;;;2.45;81.22
50550;BME280;36505;52.512;13.460;2023-03-04T00:36:12;101283.28;;;2.45;81.15
50550;BME280;36505;52.512;13.460;2023-03-04T00:38:38;101281.41;;;2.46;81.30
50550;BME280;36505;52.512;13.460;2023-03-04T00:41:04;101284.59;;;2.49;80.92
50550;BME280;36505;52.512;13.460;2023-03-04T00:43:29;101286.56;;;2.55;80.80
50550;BME280;36505;52.512;13.460;2023-03-04T00:45:56;101272.72;;;2.58;80.78
50550;BME280;36505;52.512;13.460;2023-03-04T00:48:21;101266.47;;;2.58;80.61
50550;BME280;36505;52.512;13.460;2023-03-04T00:50:47;101277.75;;;2.61;80.18
50550;BME280;36505;52.512;13.460;2023-03-04T00:53:13;101273.34;;;2.60;80.03
50550;BME280;36505;52.512;13.460;2023-03-04T00:55:38;101269.63;;;2.61;80.10
50550;BME280;36505;52.512;13.460;2023-03-04T00:58:04;101268.63;;;2.62;80.14
50550;BME280;36505;52.512;13.460;2023-03-04T01:00:29;101267.22;;;2.66;79.74
50550;BME280;36505;52.512;13.460;2023-03-04T01:02:54;101258.28;;;2.66;79.77
50550;BME280;36505;52.512;13.460;2023-03-04T01:05:22;101261.13;;;2.72;79.69
50550;BME280;36505;52.512;13.460;2023-03-04T01:07:48;101261.94;;;2.73;79.39
50550;BME280;36505;52.512;13.460;2023-03-04T01:10:14;101254.38;;;2.68;79.00
50550;BME280;36505;52.512;13.460;2023-03-04T01:12:40;101254.66;;;2.73;79.25
50550;BME280;36505;52.512;13.460;2023-03-04T01:15:07;101260.75;;;2.75;79.02
50550;BME280;36505;52.512;13.460;2023-03-04T01:17:33;101249.75;;;2.77;79.23
50550;BME280;36505;52.512;13.460;2023-03-04T01:19:58;101248.56;;;2.80;79.05
50550;BME280;36505;52.512;13.460;2023-03-04T01:22:24;101249.38;;;2.80;78.65
50550;BME280;36505;52.512;13.460;2023-03-04T01:24:49;101222.88;;;2.75;78.38
50550;BME280;36505;52.512;13.460;2023-03-04T01:27:15;101231.09;;;2.82;78.84
50550;BME280;36505;52.512;13.460;2023-03-04T01:29:40;101237.84;;;2.86;78.33
50550;BME280;36505;52.512;13.460;2023-03-04T01:32:06;101234.09;;;2.87;78.29
50550;BME280;36505;52.512;13.460;2023-03-04T01:34:31;101231.28;;;2.81;78.50
50550;BME280;36505;52.512;13.460;2023-03-04T01:36:56;101220.84;;;2.77;78.68
50550;BME280;36505;52.512;13.460;2023-03-04T01:39:22;101213.06;;;2.74;78.56
50550;BME280;36505;52.512;13.460;2023-03-04T01:41:47;101206.38;;;2.70;78.70
50550;BME280;36505;52.512;13.460;2023-03-04T01:44:13;101231.59;;;2.86;78.44
50550;BME280;36505;52.512;13.460;2023-03-04T01:46:41;101218.81;;;2.80;78.53
50550;BME280;36505;52.512;13.460;2023-03-04T01:49:09;101229.34;;;2.89;78.34
50550;BME280;36505;52.512;13.460;2023-03-04T01:51:38;101208.09;;;2.86;78.61
50550;BME280;36505;52.512;13.460;2023-03-04T01:54:03;101225.06;;;2.95;78.24
50550;BME280;36505;52.512;13.460;2023-03-04T01:56:34;101204.66;;;2.92;78.29
50550;BME280;36505;52.512;13.460;2023-03-04T02:01:36;101204.56;;;3.00;78.39
50550;BME280;36505;52.512;13.460;2023-03-04T02:04:02;101190.84;;;3.02;78.39
50550;BME280;36505;52.512;13.460;2023-03-04T02:06:29;101209.44;;;3.05;78.28
50550;BME280;36505;52.512;13.460;2023-03-04T02:08:54;101205.50;;;3.07;78.19
50550;BME280;36505;52.512;13.460;2023-03-04T02:11:20;101183.31;;;2.97;78.32
50550;BME280;36505;52.512;13.460;2023-03-04T02:13:45;101198.03;;;3.09;78.67
50550;BME280;36505;52.512;13.460;2023-03-04T02:16:11;101189.75;;;3.11;78.42
50550;BME280;36505;52.512;13.460;2023-03-04T02:18:36;101194.78;;;3.14;78.41
50550;BME280;36505;52.512;13.460;2023-03-04T02:21:24;101193.75;;;3.15;78.29
50550;BME280;36505;52.512;13.460;2023-03-04T02:23:56;101177.34;;;3.16;78.42
50550;BME280;36505;52.512;13.460;2023-03-04T02:26:29;101176.16;;;3.19;78.54
50550;BME280;36505;52.512;13.460;2023-03-04T02:28:56;101179.88;;;3.18;78.99
50550;BME280;36505;52.512;13.460;2023-03-04T02:31:30;101174.56;;;3.25;78.67
50550;BME280;36505;52.512;13.460;2023-03-04T02:33:58;101169.41;;;3.30;78.83
50550;BME280;36505;52.512;13.460;2023-03-04T02:36:25;101168.38;;;3.31;78.62
50550;BME280;36505;52.512;13.460;2023-03-04T02:38:52;101167.19;;;3.33;78.73
50550;BME280;36505;52.512;13.460;2023-03-04T02:41:21;101155.13;;;3.36;78.63
50550;BME280;36505;52.512;13.460;2023-03-04T02:43:52;101151.97;;;3.32;79.33
50550;BME280;36505;52.512;13.460;2023-03-04T02:46:18;101152.63;;;3.34;79.33
50550;BME280;36505;52.512;13.460;2023-03-04T02:48:44;101139.09;;;3.34;79.04
50550;BME280;36505;52.512;13.460;2023-03-04T02:51:09;101152.25;;;3.37;79.11
50550;BME280;36505;52.512;13.460;2023-03-04T02:53:35;101136.00;;;3.37;79.28
50550;BME280;36505;52.512;13.460;2023-03-04T02:56:00;101140.84;;;3.42;79.05
50550;BME280;36505;52.512;13.460;2023-03-04T02:58:26;101153.16;;;3.44;79.13
50550;BME280;36505;52.512;13.460;2023-03-04T03:00:51;101142.53;;;3.43;79.15
50550;BME280;36505;52.512;13.460;2023-03-04T03:03:17;101142.34;;;3.44;79.41
50550;BME280;36505;52.512;13.460;2023-03-04T03:05:42;101144.03;;;3.45;79.40
50550;BME280;36505;52.512;13.460;2023-03-04T03:08:08;101144.69;;;3.47;79.63
50550;BME280;36505;52.512;13.460;2023-03-04T03:10:34;101142.81;;;3.48;79.51
50550;BME280;36505;52.512;13.460;2023-03-04T03:12:59;101141.59;;;3.50;79.57
50550;BME280;36505;52.512;13.460;2023-03-04T03:15:25;101144.28;;;3.50;79.80
50550;BME280;36505;52.512;13.460;2023-03-04T03:17:50;101132.88;;;3.55;79.46
50550;BME280;36505;52.512;13.460;2023-03-04T03:20:16;101143.72;;;3.55;79.74
50550;BME280;36505;52.512;13.460;2023-03-04T03:22:42;101144.19;;;3.58;79.58
50550;BME280;36505;52.512;13.460;2023-03-04T03:25:09;101136.25;;;3.57;80.06
50550;BME280;36505;52.512;13.460;2023-03-04T03:27:35;101135.41;;;3.56;80.08
50550;BME280;36505;52.512;13.460;2023-03-04T03:30:01;101130.91;;;3.64;79.99
50550;BME280;36505;52.512;13.460;2023-03-04T03:32:27;101128.22;;;3.64;80.47
50550;BME280;36505;52.512;13.460;2023-03-04T03:34:52;101131.56;;;3.66;80.35
50550;BME280;36505;52.512;13.460;2023-03-04T03:37:18;101124.94;;;3.68;80.02
50550;BME280;36505;52.512;13.460;2023-03-04T03:39:43;101116.34;;;3.65;80.45
50550;BME280;36505;52.512;13.460;2023-03-04T03:42:09;101110.09;;;3.64;80.51
50550;BME280;36505;52.512;13.460;2023-03-04T03:44:34;101096.28;;;3.59;80.33
50550;BME280;36505;52.512;13.460;2023-03-04T03:47:01;101115.41;;;3.72;80.41
50550;BME280;36505;52.512;13.460;2023-03-04T03:49:26;101109.63;;;3.75;80.60
50550;BME280;36505;52.512;13.460;2023-03-04T03:51:52;101109.16;;;3.72;80.82
50550;BME280;36505;52.512;13.460;2023-03-04T03:54:17;101104.56;;;3.72;80.65
50550;BME280;36505;52.512;13.460;2023-03-04T03:56:42;101103.91;;;3.70;80.87
50550;BME280;36505;52.512;13.460;2023-03-04T03:59:08;101104.19;;;3.75;80.62
50550;BME280;36505;52.512;13.460;2023-03-04T04:01:33;101113.78;;;3.78;80.64
50550;BME280;36505;52.512;13.460;2023-03-04T04:03:59;101102.78;;;3.79;80.50
50550;BME280;36505;52.512;13.460;2023-03-04T04:06:25;101104.28;;;3.82;80.72
50550;BME280;36505;52.512;13.460;2023-03-04T04:08:50;101099.28;;;3.85;80.59
50550;BME280;36505;52.512;13.460;2023-03-04T04:11:16;101102.47;;;3.89;80.35
50550;BME280;36505;52.512;13.460;2023-03-04T04:13:42;101103.09;;;3.91;80.40
50550;BME280;36505;52.512;13.460;2023-03-04T04:16:09;101093.69;;;3.87;80.34
50550;BME280;36505;52.512;13.460;2023-03-04T04:18:35;101106.00;;;3.89;80.41
50550;BME280;36505;52.512;13.460;2023-03-04T04:21:00;101100.38;;;3.91;80.17
50550;BME280;36505;52.512;13.460;2023-03-04T04:23:26;101098.53;;;3.91;80.40
50550;BME280;36505;52.512;13.460;2023-03-04T04:25:54;101086.00;;;3.90;80.22
50550;BME280;36505;52.512;13.460;2023-03-04T04:28:20;101086.28;;;3.95;80.19
50550;BME280;36505;52.512;13.460;2023-03-04T04:30:45;101086.06;;;3.97;80.14
50550;BME280;36505;52.512;13.460;2023-03-04T04:33:10;101076.47;;;3.94;80.34
50550;BME280;36505;52.512;13.460;2023-03-04T04:35:36;101086.53;;;4.01;80.08
50550;BME280;36505;52.512;13.460;2023-03-04T04:38:03;101081.13;;;4.01;80.02
50550;BME280;36505;52.512;13.460;2023-03-04T04:40:29;101085.50;;;4.02;80.17
50550;BME280;36505;52.512;13.460;2023-03-04T04:42:54;101081.13;;;4.01;80.03
50550;BME280;36505;52.512;13.460;2023-03-04T04:45:19;101081.75;;;4.03;79.93
50550;BME280;36505;52.512;13.460;2023-03-04T04:47:45;101074.72;;;4.08;79.93
50550;BME280;36505;52.512;13.460;2023-03-04T04:50:11;101080.16;;;4.08;80.04
50550;BME280;36505;52.512;13.460;2023-03-04T04:52:37;101071.75;;;4.03;79.96
50550;BME280;36505;52.512;13.460;2023-03-04T04:55:02;101068.00;;;4.04;79.77
50550;BME280;36505;52.512;13.460;2023-03-04T04:57:28;101079.94;;;4.10;79.98
50550;BME280;36505;52.512;13.460;2023-03-04T04:59:53;101065.56;;;4.09;79.96
50550;BME280;36505;52.512;13.460;2023-03-04T05:02:19;101072.03;;;4.08;80.07
50550;BME280;36505;52.512;13.460;2023-03-04T05:04:45;101073.72;;;4.09;79.78
50550;BME280;36505;52.512;13.460;2023-03-04T05:07:10;101066.19;;;4.11;79.73
50550;BME280;36505;52.512;13.460;2023-03-04T05:09:35;101068.53;;;4.14;79.66
50550;BME280;36505;52.512;13.460;2023-03-04T05:12:01;101064.97;;;4.14;80.21
50550;BME280;36505;52.512;13.460;2023-03-04T05:14:26;101067.69;;;4.14;79.93
50550;BME280;36505;52.512;13.460;2023-03-04T05:16:52;101070.84;;;4.17;79.63
50550;BME280;36505;52.512;13.460;2023-03-04T05:19:18;101062.72;;;4.17;79.90
50550;BME280;36505;52.512;13.460;2023-03-04T05:21:43;101073.16;;;4.20;79.44
50550;BME280;36505;52.512;13.460;2023-03-04T05:24:09;101060.47;;;4.21;79.71
50550;BME280;36505;52.512;13.460;2023-03-04T05:26:35;101059.81;;;4.19;79.69
50550;BME280;36505;52.512;13.460;2023-03-04T05:29:00;101065.88;;;4.21;79.83
50550;BME280;36505;52.512;13.460;2023-03-04T05:31:26;101060.06;;;4.24;79.87
50550;BME280;36505;52.512;13.460;2023-03-04T05:33:51;101069.69;;;4.26;79.69
50550;BME280;36505;52.512;13.460;2023-03-04T05:36:17;101057.81;;;4.27;79.85
50550;BME280;36505;52.512;13.460;2023-03-04T05:38:42;101066.78;;;4.28;79.66
50550;BME280;36505;52.512;13.460;2023-03-04T05:41:08;101053.59;;;4.25;79.52
50550;BME280;36505;52.512;13.460;2023-03-04T05:43:34;101053.22;;;4.28;79.58
50550;BME280;36505;52.512;13.460;2023-03-04T05:46:01;101063.22;;;4.27;79.85
50550;BME280;36505;52.512;13.460;2023-03-04T05:48:27;101058.47;;;4.29;79.91
50550;BME280;36505;52.512;13.460;2023-03-04T05:50:57;101054.50;;;4.32;79.57
50550;BME280;36505;52.512;13.460;2023-03-04T05:53:23;101053.66;;;4.31;79.67
50550;BME280;36505;52.512;13.460;2023-03-04T05:55:49;101053.09;;;4.36;79.68
50550;BME280;36505;52.512;13.460;2023-03-04T05:58:16;101052.03;;;4.37;79.99
50550;BME280;36505;52.512;13.460;2023-03-04T06:00:42;101057.91;;;4.41;79.79
50550;BME280;36505;52.512;13.460;2023-03-04T06:03:13;101052.25;;;4.35;80.28
50550;BME280;36505;52.512;13.460;2023-03-04T06:05:39;101053.28;;;4.34;80.28
50550;BME280;36505;52.512;13.460;2023-03-04T06:08:04;101056.22;;;4.40;80.51
50550;BME280;36505;52.512;13.460;2023-03-04T06:10:29;101055.56;;;4.37;80.66
50550;BME280;36505;52.512;13.460;2023-03-04T06:12:55;101061.00;;;4.37;80.54
50550;BME280;36505;52.512;13.460;2023-03-04T06:15:20;101048.69;;;4.35;81.17
50550;BME280;36505;52.512;13.460;2023-03-04T06:17:45;101063.34;;;4.41;81.12
50550;BME280;36505;52.512;13.460;2023-03-04T06:20:11;101064.38;;;4.40;81.09
50550;BME280;36505;52.512;13.460;2023-03-04T06:22:36;101068.34;;;4.44;81.42
50550;BME280;36505;52.512;13.460;2023-03-04T06:25:02;101064.00;;;4.43;81.49
50550;BME280;36505;52.512;13.460;2023-03-04T06:27:28;101064.59;;;4.45;81.46
50550;BME280;36505;52.512;13.460;2023-03-04T06:29:53;101057.13;;;4.47;81.79
50550;BME280;36505;52.512;13.460;2023-03-04T06:32:19;101057.97;;;4.47;81.52
50550;BME280;36505;52.512;13.460;2023-03-04T06:34:44;101058.38;;;4.51;81.85
50550;BME280;36505;52.512;13.460;2023-03-04T06:37:10;101057.13;;;4.47;82.24
50550;BME280;36505;52.512;13.460;2023-03-04T06:39:35;101067.38;;;4.51;82.60
50550;BME280;36505;52.512;13.460;2023-03-04T06:42:01;101068.03;;;4.53;82.64
50550;BME280;36505;52.512;13.460;2023-03-04T06:44:26;101067.19;;;4.53;82.75
50550;BME280;36505;52.512;13.460;2023-03-04T06:46:51;101068.66;;;4.55;83.08
50550;BME280;36505;52.512;13.460;2023-03-04T06:49:17;101069.28;;;4.57;83.14
50550;BME280;36505;52.512;13.460;2023-03-04T06:51:42;101069.50;;;4.56;83.57
50550;BME280;36505;52.512;13.460;2023-03-04T06:54:08;101062.63;;;4.60;83.60
50550;BME280;36505;52.512;13.460;2023-03-04T06:56:34;101074.78;;;4.64;83.61
50550;BME280;36505;52.512;13.460;2023-03-04T06:59:00;101070.78;;;4.60;84.08
50550;BME280;36505;52.512;13.460;2023-03-04T07:01:27;101063.94;;;4.64;84.07
50550;BME280;36505;52.512;13.460;2023-03-04T07:03:53;101072.25;;;4.62;84.14
50550;BME280;36505;52.512;13.460;2023-03-04T07:06:21;101077.94;;;4.67;84.64
50550;BME280;36505;52.512;13.460;2023-03-04T07:08:47;101071.66;;;4.67;85.03
50550;BME280;36505;52.512;13.460;2023-03-04T07:11:14;101056.41;;;4.66;85.13
50550;BME280;36505;52.512;13.460;2023-03-04T07:13:40;101071.28;;;4.70;85.38
50550;BME280;36505;52.512;13.460;2023-03-04T07:16:11;101068.56;;;4.70;85.05
50550;BME280;36505;52.512;13.460;2023-03-04T07:18:37;101069.41;;;4.70;85.35
50550;BME280;36505;52.512;13.460;2023-03-04T07:21:04;101072.75;;;4.72;85.57
50550;BME280;36505;52.512;13.460;2023-03-04T07:23:29;101075.25;;;4.74;85.52
50550;BME280;36505;52.512;13.460;2023-03-04T07:25:55;101082.97;;;4.70;85.97
50550;BME280;36505;52.512;13.460;2023-03-04T07:28:20;101082.97;;;4.70;86.09
50550;BME280;36505;52.512;13.460;2023-03-04T07:30:45;101071.47;;;4.68;86.66
50550;BME280;36505;52.512;13.460;2023-03-04T07:33:12;101081.72;;;4.73;86.64
50550;BME280;36505;52.512;13.460;2023-03-04T07:35:39;101084.44;;;4.73;87.17
50550;BME280;36505;52.512;13.460;2023-03-04T07:38:04;101085.09;;;4.75;87.38
50550;BME280;36505;52.512;13.460;2023-03-04T07:40:29;101076.53;;;4.78;87.40
50550;BME280;36505;52.512;13.460;2023-03-04T07:42:55;101073.84;;;4.85;87.45
50550;BME280;36505;52.512;13.460;2023-03-04T07:45:22;101065.19;;;4.96;87.18
50550;BME280;36505;52.512;13.460;2023-03-04T07:47:47;101077.09;;;5.01;87.11
50550;BME280;36505;52.512;13.460;2023-03-04T07:50:14;101077.75;;;5.03;86.97
50550;BME280;36505;52.512;13.460;2023-03-04T07:52:41;101070.22;;;5.05;87.02
50550;BME280;36505;52.512;13.460;2023-03-04T07:55:08;101067.97;;;5.09;86.71
50550;BME280;36505;52.512;13.460;2023-03-04T07:57:34;101070.25;;;5.12;87.01
50550;BME280;36505;52.512;13.460;2023-03-04T07:59:59;101074.69;;;5.20;87.13
50550;BME280;36505;52.512;13.460;2023-03-04T08:02:25;101057.59;;;5.26;87.07
50550;BME280;36505;52.512;13.460;2023-03-04T08:04:50;101065.56;;;5.34;86.52
50550;BME280;36505;52.512;13.460;2023-03-04T08:07:16;101067.66;;;5.32;86.38
50550;BME280;36505;52.512;13.460;2023-03-04T08:09:41;101068.69;;;5.31;86.39
50550;BME280;36505;52.512;13.460;2023-03-04T08:12:07;101055.13;;;5.31;85.40
50550;BME280;36505;52.512;13.460;2023-03-04T08:14:32;101030.41;;;5.19;85.35
50550;BME280;36505;52.512;13.460;2023-03-04T08:16:58;101072.47;;;5.36;85.28
50550;BME280;36505;52.512;13.460;2023-03-04T08:19:23;101062.66;;;5.35;85.20
50550;BME280;36505;52.512;13.460;2023-03-04T08:21:49;101058.88;;;5.30;85.12
50550;BME280;36505;52.512;13.460;2023-03-04T08:24:14;101052.81;;;5.28;85.53
50550;BME280;36505;52.512;13.460;2023-03-04T08:26:45;101065.19;;;5.37;85.05
50550;BME280;36505;52.512;13.460;2023-03-04T08:29:14;101070.41;;;5.38;85.14
50550;BME280;36505;52.512;13.460;2023-03-04T08:31:41;101048.25;;;5.35;85.22
50550;BME280;36505;52.512;13.460;2023-03-04T08:34:07;101061.84;;;5.41;84.76
50550;BME280;36505;52.512;13.460;2023-03-04T08:36:34;101052.66;;;5.42;84.12
50550;BME280;36505;52.512;13.460;2023-03-04T08:39:01;101057.88;;;5.37;83.84
50550;BME280;36505;52.512;13.460;2023-03-04T08:41:27;101053.88;;;5.40;83.99
50550;BME280;36505;52.512;13.460;2023-03-04T08:43:53;101054.53;;;5.42;83.20
50550;BME280;36505;52.512;13.460;2023-03-04T08:46:18;101050.34;;;5.46;83.09
50550;BME280;36505;52.512;13.460;2023-03-04T08:48:44;101046.41;;;5.48;82.86
50550;BME280;36505;52.512;13.460;2023-03-04T08:51:11;101045.59;;;5.54;82.13
50550;BME280;36505;52.512;13.460;2023-03-04T08:53:37;101039.56;;;5.59;81.93
50550;BME280;36505;52.512;13.460;2023-03-04T08:56:03;101038.09;;;5.63;81.49
50550;BME280;36505;52.512;13.460;2023-03-04T08:58:29;101037.28;;;5.69;80.20
50550;BME280;36505;52.512;13.460;2023-03-04T09:00:54;101042.50;;;5.71;79.14
50550;BME280;36505;52.512;13.460;2023-03-04T09:03:20;101043.16;;;5.73;77.82
50550;BME280;36505;52.512;13.460;2023-03-04T09:05:46;101036.44;;;5.69;77.55
50550;BME280;36505;52.512;13.460;2023-03-04T09:08:13;101038.13;;;5.70;77.72
50550;BME280;36505;52.512;13.460;2023-03-04T09:10:38;101035.41;;;5.76;76.87
50550;BME280;36505;52.512;13.460;2023-03-04T09:13:11;101039.19;;;5.82;76.06
50550;BME280;36505;52.512;13.460;2023-03-04T09:15:44;101041.94;;;5.88;76.19
50550;BME280;36505;52.512;13.460;2023-03-04T09:18:10;101035.25;;;5.91;74.23
50550;BME280;36505;52.512;13.460;2023-03-04T09:20:36;101042.34;;;5.85;73.91
50550;BME280;36505;52.512;13.460;2023-03-04T09:23:01;101045.31;;;5.90;74.11
50550;BME280;36505;52.512;13.460;2023-03-04T09:25:27;101048.44;;;6.01;74.59
50550;BME280;36505;52.512;13.460;2023-03-04T09:27:52;101053.91;;;6.07;74.34
50550;BME280;36505;52.512;13.460;2023-03-04T09:30:18;101056.19;;;6.10;73.54
50550;BME280;36505;52.512;13.460;2023-03-04T09:32:43;101065.19;;;6.17;72.92
50550;BME280;36505;52.512;13.460;2023-03-04T09:35:09;101061.44;;;6.18;72.92
50550;BME280;36505;52.512;13.460;2023-03-04T09:37:35;101063.13;;;6.19;72.49
50550;BME280;36505;52.512;13.460;2023-03-04T09:40:01;101059.97;;;6.22;72.53
50550;BME280;36505;52.512;13.460;2023-03-04T09:42:34;101065.00;;;6.25;72.50
50550;BME280;36505;52.512;13.460;2023-03-04T09:45:03;101062.69;;;6.29;73.33
50550;BME280;36505;52.512;13.460;2023-03-04T09:47:33;101061.44;;;6.31;73.28
50550;BME280;36505;52.512;13.460;2023-03-04T09:50:02;101054.13;;;6.32;73.23
50550;BME280;36505;52.512;13.460;2023-03-04T09:58:02;101052.66;;;6.29;72.04
50550;BME280;36505;52.512;13.460;2023-03-04T10:00:39;101062.06;;;6.40;71.68
50550;BME280;36505;52.512;13.460;2023-03-04T10:05:33;101054.97;;;6.52;71.15
50550;BME280;36505;52.512;13.460;2023-03-04T10:10:53;101047.19;;;6.49;70.94
50550;BME280;36505;52.512;13.460;2023-03-04T10:13:28;101052.88;;;6.54;70.81
50550;BME280;36505;52.512;13.460;2023-03-04T10:15:58;101058.31;;;6.54;70.65
50550;BME280;36505;52.512;13.460;2023-03-04T10:18:32;101044.91;;;6.59;71.15
50550;BME280;36505;52.512;13.460;2023-03-04T10:23:28;101048.25;;;6.68;70.96
50550;BME280;36505;52.512;13.460;2023-03-04T10:25:54;101044.69;;;6.74;70.69
50550;BME280;36505;52.512;13.460;2023-03-04T10:28:28;101053.25;;;6.78;70.77
50550;BME280;36505;52.512;13.460;2023-03-04T10:33:31;101046.13;;;6.77;70.74
50550;BME280;36505;52.512;13.460;2023-03-04T10:38:38;101048.84;;;6.77;69.49
50550;BME280;36505;52.512;13.460;2023-03-04T10:41:20;101048.00;;;6.69;69.58
50550;BME280;36505;52.512;13.460;2023-03-04T10:46:28;101054.94;;;6.72;69.25
50550;BME280;36505;52.512;13.460;2023-03-04T10:48:54;101036.50;;;6.74;67.55
50550;BME280;36505;52.512;13.460;2023-03-04T10:51:25;101046.56;;;6.73;67.70
50550;BME280;36505;52.512;13.460;2023-03-04T10:53:56;101053.25;;;6.64;67.45
50550;BME280;36505;52.512;13.460;2023-03-04T11:07:36;101053.47;;;6.69;64.96
50550;BME280;36505;52.512;13.460;2023-03-04T11:12:40;101062.06;;;6.60;65.04
50550;BME280;36505;52.512;13.460;2023-03-04T11:15:17;101065.19;;;6.63;64.53
50550;BME280;36505;52.512;13.460;2023-03-04T11:17:47;101069.59;;;6.64;64.69
50550;BME280;36505;52.512;13.460;2023-03-04T11:20:29;101066.66;;;6.66;65.40
50550;BME280;36505;52.512;13.460;2023-03-04T11:22:56;101063.09;;;6.72;64.55
50550;BME280;36505;52.512;13.460;2023-03-04T11:25:31;101061.19;;;6.79;64.81
50550;BME280;36505;52.512;13.460;2023-03-04T11:28:01;101057.22;;;6.88;65.09
50550;BME280;36505;52.512;13.460;2023-03-04T11:30:47;101072.88;;;6.99;65.28
50550;BME280;36505;52.512;13.460;2023-03-04T11:33:21;101063.88;;;7.05;64.13
50550;BME280;36505;52.512;13.460;2023-03-04T11:35:55;101068.47;;;7.05;64.22
50550;BME280;36505;52.512;13.460;2023-03-04T11:38:28;101065.13;;;7.03;64.46
50550;BME280;36505;52.512;13.460;2023-03-04T11:41:03;101058.22;;;7.00;64.75
50550;BME280;36505;52.512;13.460;2023-03-04T11:43:36;101057.75;;;7.10;64.25
50550;BME280;36505;52.512;13.460;2023-03-04T11:56:52;101067.00;;;7.16;60.79
50550;BME280;36505;52.512;13.460;2023-03-04T12:02:17;101052.28;;;7.17;60.25
50550;BME280;36505;52.512;13.460;2023-03-04T12:08:07;101061.31;;;7.17;59.79
50550;BME280;36505;52.512;13.460;2023-03-04T12:19:02;101066.63;;;6.92;60.45
50550;BME280;36505;52.512;13.460;2023-03-04T12:29:32;101048.19;;;7.01;60.21
50550;BME280;36505;52.512;13.460;2023-03-04T12:41:00;101064.22;;;7.29;58.23
50550;BME280;36505;52.512;13.460;2023-03-04T12:44:19;101059.41;;;7.24;57.98
50550;BME280;36505;52.512;13.460;2023-03-04T12:54:34;101058.81;;;7.16;56.69
50550;BME280;36505;52.512;13.460;2023-03-04T13:08:02;101045.84;;;7.04;55.03
50550;BME280;36505;52.512;13.460;2023-03-04T13:10:31;101063.19;;;7.17;54.85
50550;BME280;36505;52.512;13.460;2023-03-04T13:12:59;101060.47;;;7.17;54.48
50550;BME280;36505;52.512;13.460;2023-03-04T13:15:26;101056.09;;;7.16;54.55
50550;BME280;36505;52.512;13.460;2023-03-04T13:17:56;101054.00;;;7.11;54.75
50550;BME280;36505;52.512;13.460;2023-03-04T13:20:40;101050.88;;;7.07;54.57
50550;BME280;36505;52.512;13.460;2023-03-04T13:25:42;101045.00;;;7.04;54.12
50550;BME280;36505;52.512;13.460;2023-03-04T13:36:06;101064.88;;;7.18;53.85
50550;BME280;36505;52.512;13.460;2023-03-04T13:41:49;101050.31;;;6.86;54.78
50550;BME280;36505;52.512;13.460;2023-03-04T13:47:15;101071.41;;;6.97;54.86
50550;BME280;36505;52.512;13.460;2023-03-04T13:49:41;101061.38;;;6.91;54.15
50550;BME280;36505;52.512;13.460;2023-03-04T13:58:21;101073.78;;;6.60;54.87
50550;BME280;36505;52.512;13.460;2023-03-04T14:00:50;101063.97;;;6.46;55.27
50550;BME280;36505;52.512;13.460;2023-03-04T14:03:27;101066.88;;;6.45;55.70
50550;BME280;36505;52.512;13.460;2023-03-04T14:08:33;101056.63;;;6.40;55.34
50550;BME280;36505;52.512;13.460;2023-03-04T14:10:59;101035.28;;;6.30;55.25
50550;BME280;36505;52.512;13.460;2023-03-04T14:13:25;101035.09;;;6.39;54.87
50550;BME280;36505;52.512;13.460;2023-03-04T14:15:56;101058.09;;;6.49;54.81
50550;BME280;36505;52.512;13.460;2023-03-04T14:18:22;101065.63;;;6.47;54.88
50550;BME280;36505;52.512;13.460;2023-03-04T14:20:59;101048.47;;;6.33;55.02
50550;BME280;36505;52.512;13.460;2023-03-04T14:23:33;101062.91;;;6.47;54.69
50550;BME280;36505;52.512;13.460;2023-03-04T14:26:26;101063.31;;;6.38;55.44
50550;BME280;36505;52.512;13.460;2023-03-04T14:28:52;101072.97;;;6.33;55.86
50550;BME280;36505;52.512;13.460;2023-03-04T14:31:23;101060.81;;;6.23;56.36
50550;BME280;36505;52.512;13.460;2023-03-04T14:33:52;101056.84;;;6.19;56.60
50550;BME280;36505;52.512;13.460;2023-03-04T14:36:22;101060.59;;;6.31;56.29
50550;BME280;36505;52.512;13.460;2023-03-04T14:38:56;101064.16;;;6.25;56.50
50550;BME280;36505;52.512;13.460;2023-03-04T14:41:36;101045.97;;;6.12;56.63
50550;BME280;36505;52.512;13.460;2023-03-04T14:44:10;101062.06;;;6.20;56.88
50550;BME280;36505;52.512;13.460;2023-03-04T14:46:43;101076.28;;;6.22;57.09
50550;BME280;36505;52.512;13.460;2023-03-04T14:49:12;101054.97;;;6.13;57.12
50550;BME280;36505;52.512;13.460;2023-03-04T14:54:05;101036.09;;;5.91;57.62
50550;BME280;36505;52.512;13.460;2023-03-04T14:56:34;101063.94;;;6.13;57.39
50550;BME280;36505;52.512;13.460;2023-03-04T14:58:59;101063.72;;;6.08;57.62